createdAt,value
2022-07-25T00:01:05.509Z,18.27
2022-07-25T00:03:34.815Z,10.23
2022-07-25T00:06:02.510Z,13.13
2022-07-25T00:08:30.197Z,13.03
2022-07-25T00:10:59.263Z,10.10
2022-07-25T00:13:26.945Z,10.53
2022-07-25T00:15:55.788Z,11.67
2022-07-25T00:18:23.489Z,11.03
2022-07-25T00:20:51.270Z,12.30
2022-07-25T00:23:18.988Z,10.43
2022-07-25T00:25:46.755Z,11.60
2022-07-25T00:28:15.726Z,11.53
2022-07-25T00:30:43.413Z,13.13
2022-07-25T00:33:11.090Z,12.80
2022-07-25T00:35:38.810Z,12.40
2022-07-25T00:38:06.543Z,13.77
2022-07-25T00:40:34.876Z,11.60
2022-07-25T00:43:03.630Z,12.60
2022-07-25T00:45:32.658Z,12.33
2022-07-25T00:48:00.402Z,16.50
2022-07-25T00:50:28.126Z,12.93
2022-07-25T00:52:56.492Z,14.20
2022-07-25T00:55:24.801Z,17.27
2022-07-25T00:57:53.678Z,17.70
2022-07-25T01:00:21.509Z,13.70
2022-07-25T01:02:50.920Z,16.10
2022-07-25T01:05:18.800Z,15.10
2022-07-25T01:07:48.314Z,20.63
2022-07-25T01:10:16.067Z,16.73
2022-07-25T01:12:49.755Z,12.20
2022-07-25T01:15:18.592Z,13.50
2022-07-25T01:17:46.607Z,15.10
2022-07-25T01:20:17.058Z,11.13
2022-07-25T01:22:45.048Z,13.77
2022-07-25T01:25:13.635Z,17.10
2022-07-25T01:27:42.278Z,12.97
2022-07-25T01:30:13.260Z,16.90
2022-07-25T01:32:41.802Z,18.87
2022-07-25T01:35:11.009Z,22.87
2022-07-25T01:37:40.105Z,13.53
2022-07-25T01:40:13.668Z,16.60
2022-07-25T01:42:41.428Z,12.70
2022-07-25T01:45:10.329Z,15.43
2022-07-25T01:47:38.591Z,12.00
2022-07-25T01:50:09.157Z,17.07
2022-07-25T01:52:37.486Z,14.50
2022-07-25T01:55:08.146Z,13.50
2022-07-25T01:57:36.319Z,13.37
2022-07-25T02:00:05.318Z,16.13
2022-07-25T02:02:39.902Z,11.93
2022-07-25T02:05:08.637Z,12.87
2022-07-25T02:07:37.047Z,14.27
2022-07-25T02:10:08.382Z,18.27
2022-07-25T02:12:36.248Z,15.60
2022-07-25T02:15:03.999Z,17.50
2022-07-25T02:17:31.695Z,16.60
2022-07-25T02:19:59.382Z,17.30
2022-07-25T02:22:27.065Z,16.33
2022-07-25T02:24:54.795Z,16.50
2022-07-25T02:27:23.850Z,15.50
2022-07-25T02:29:51.523Z,16.37
2022-07-25T02:32:19.169Z,14.93
2022-07-25T02:34:46.812Z,14.80
2022-07-25T02:37:14.851Z,16.70
2022-07-25T02:39:42.619Z,18.20
2022-07-25T02:42:10.297Z,16.23
2022-07-25T02:44:39.326Z,14.97
2022-07-25T02:47:07.170Z,16.03
2022-07-25T02:49:34.928Z,15.10
2022-07-25T02:52:02.624Z,16.13
2022-07-25T02:54:30.321Z,16.80
2022-07-25T02:56:58.070Z,17.33
2022-07-25T02:59:25.804Z,14.97
2022-07-25T03:02:01.451Z,13.50
2022-07-25T03:04:31.027Z,18.73
2022-07-25T03:06:58.803Z,17.23
2022-07-25T03:09:26.548Z,18.10
2022-07-25T03:11:54.236Z,15.20
2022-07-25T03:14:21.941Z,18.23
2022-07-25T03:16:49.637Z,16.87
2022-07-25T03:19:18.645Z,18.60
2022-07-25T03:21:46.384Z,16.33
2022-07-25T03:24:14.104Z,16.60
2022-07-25T03:26:41.802Z,15.13
2022-07-25T03:29:09.534Z,17.50
2022-07-25T03:31:37.347Z,13.23
2022-07-25T03:34:06.086Z,16.80
2022-07-25T03:36:35.617Z,17.00
2022-07-25T03:39:05.559Z,17.80
2022-07-25T03:41:33.478Z,16.90
2022-07-25T03:44:01.202Z,17.70
2022-07-25T03:46:29.026Z,20.37
2022-07-25T03:48:56.881Z,19.70
2022-07-25T22:57:07.856Z,10.80
2022-07-25T22:59:35.560Z,5.70
2022-07-25T23:02:03.256Z,6.23
2022-07-25T23:04:31.045Z,5.23
2022-07-25T23:06:58.799Z,9.63
2022-07-25T23:09:36.451Z,7.53
2022-07-25T23:12:04.902Z,4.67
2022-07-25T23:14:33.985Z,7.20
2022-07-25T23:17:19.983Z,8.00
2022-07-25T23:19:49.230Z,6.67
2022-07-25T23:22:17.525Z,8.77
2022-07-25T23:24:45.243Z,15.60
2022-07-25T23:27:13.134Z,19.00
2022-07-25T23:29:42.306Z,9.30
2022-07-25T23:32:10.442Z,10.90
2022-07-25T23:34:38.095Z,7.13
2022-07-25T23:37:05.781Z,8.83
2022-07-25T23:39:33.646Z,6.23
2022-07-25T23:42:01.746Z,9.10
2022-07-25T23:44:29.607Z,6.10
2022-07-25T23:46:59.837Z,6.87
2022-07-25T23:49:29.301Z,7.07
2022-07-25T23:51:57.503Z,6.33
2022-07-25T23:54:25.728Z,7.10
2022-07-25T23:56:53.734Z,5.50
2022-07-25T23:59:21.437Z,6.63
